Time;durP1;ratioP1;P1;durP2;ratioP2;P2;SDS_P1;SDS_P2;PMS_P1;PMS_P2;Temp;Humidity;BMP_temperature;BMP_pressure;BME280_temperature;BME280_humidity;BME280_pressure;Samples;Min_cycle;Max_cycle;Signal;HPM_P1;HPM_P2
2022/05/15 00:01:06;;;;;;;2.25;2.15;;;17.20;82.30;;;;;;5014411;28;20183;-77
2022/05/15 00:03:32;;;;;;;4.85;1.75;;;17.20;82.40;;;;;;5010614;28;20275;-77
2022/05/15 00:06:01;;;;;;;1.92;1.83;;;17.10;82.90;;;;;;5010595;28;20237;-77
2022/05/15 00:08:29;;;;;;;2.58;2.47;;;17.10;82.40;;;;;;5017494;28;20651;-77
2022/05/15 00:10:56;;;;;;;2.13;2.13;;;17.10;82.40;;;;;;5012738;28;20304;-76
2022/05/15 00:13:23;;;;;;;2.30;2.20;;;17.00;82.50;;;;;;5050670;28;20188;-77
2022/05/15 00:15:49;;;;;;;2.58;2.30;;;17.00;82.80;;;;;;5015420;28;20253;-76
2022/05/15 00:18:16;;;;;;;1.95;1.85;;;17.00;82.30;;;;;;5014485;28;20196;-77
2022/05/15 00:20:42;;;;;;;2.30;2.15;;;17.00;82.40;;;;;;5018902;28;20181;-75
2022/05/15 00:23:11;;;;;;;2.35;2.03;;;16.90;82.50;;;;;;5010928;28;21000;-76
2022/05/15 00:25:37;;;;;;;2.65;2.25;;;16.90;82.40;;;;;;5010937;28;20196;-74
2022/05/15 00:28:03;;;;;;;2.50;2.40;;;16.90;82.50;;;;;;5011790;28;20177;-76
2022/05/15 00:30:30;;;;;;;2.35;2.20;;;16.80;82.40;;;;;;5012798;28;20232;-76
2022/05/15 00:32:56;;;;;;;2.38;2.38;;;16.80;82.60;;;;;;5009776;28;20992;-76
2022/05/15 00:35:21;;;;;;;2.03;1.92;;;16.80;82.60;;;;;;5010347;28;20220;-76
2022/05/15 00:37:47;;;;;;;2.13;2.03;;;16.80;82.70;;;;;;5009552;28;20330;-76
2022/05/15 00:40:16;;;;;;;2.25;2.20;;;16.70;83.50;;;;;;5014614;28;20187;-76
2022/05/15 00:42:42;;;;;;;1.63;1.63;;;16.70;82.80;;;;;;5014624;28;20197;-76
2022/05/15 00:45:09;;;;;;;2.53;2.20;;;16.60;83.30;;;;;;5015208;28;20189;-76
2022/05/15 00:47:35;;;;;;;2.03;2.03;;;16.60;82.90;;;;;;5014850;28;20192;-76
2022/05/15 00:50:05;;;;;;;2.30;2.10;;;16.60;83.00;;;;;;5015778;28;20177;-77
2022/05/15 00:52:36;;;;;;;1.80;1.70;;;16.50;82.70;;;;;;5014739;28;20243;-77
2022/05/15 00:55:06;;;;;;;2.08;1.98;;;16.50;82.60;;;;;;5013935;28;20220;-76
2022/05/15 00:57:37;;;;;;;1.98;1.88;;;16.50;82.70;;;;;;5014240;28;20576;-76
2022/05/15 01:00:12;;;;;;;2.30;2.20;;;16.40;82.90;;;;;;5013329;28;20299;-76
2022/05/15 01:02:41;;;;;;;3.75;2.08;;;16.40;82.80;;;;;;5011223;28;20188;-77
2022/05/15 01:05:12;;;;;;;2.17;2.08;;;16.40;83.00;;;;;;5017339;28;20226;-77
2022/05/15 01:07:38;;;;;;;2.72;2.28;;;16.30;83.20;;;;;;5008760;28;20180;-77
2022/05/15 01:10:06;;;;;;;2.00;2.00;;;16.30;83.20;;;;;;5013189;28;20739;-77
2022/05/15 01:12:33;;;;;;;2.25;2.13;;;16.30;83.40;;;;;;5014638;28;20188;-77
2022/05/15 01:15:00;;;;;;;1.88;1.88;;;16.30;83.30;;;;;;5010326;28;20213;-77
2022/05/15 01:17:25;;;;;;;2.45;2.22;;;16.20;84.00;;;;;;5010432;28;20181;-77
2022/05/15 01:20:01;;;;;;;2.58;2.38;;;16.20;84.30;;;;;;5012294;28;20203;-75
2022/05/15 01:22:26;;;;;;;2.20;2.17;;;16.20;83.80;;;;;;5014112;28;20206;-76
2022/05/15 01:24:52;;;;;;;2.30;2.20;;;16.20;83.70;;;;;;5008680;28;20181;-76
2022/05/15 01:27:18;;;;;;;2.28;2.17;;;;;;;;;;5016057;28;20288;-75
2022/05/15 01:29:46;;;;;;;2.05;1.95;;;16.10;83.70;;;;;;5012425;28;20666;-77
2022/05/15 01:32:13;;;;;;;1.60;1.50;;;16.10;83.60;;;;;;5014357;28;20233;-77
2022/05/15 01:34:40;;;;;;;2.22;2.13;;;16.00;84.10;;;;;;5012149;28;20239;-77
2022/05/15 01:37:07;;;;;;;3.80;2.40;;;16.00;84.20;;;;;;5041743;28;20181;-77
2022/05/15 01:39:32;;;;;;;2.95;1.70;;;16.00;83.90;;;;;;5042604;28;20188;-76
2022/05/15 01:41:58;;;;;;;1.85;1.75;;;16.00;84.00;;;;;;5011140;28;20578;-75
2022/05/15 01:44:25;;;;;;;2.33;2.22;;;16.00;84.00;;;;;;5009740;28;20184;-77
2022/05/15 01:46:51;;;;;;;2.22;2.00;;;15.90;84.40;;;;;;5007762;28;20608;-76
2022/05/15 01:49:17;;;;;;;2.60;1.67;;;15.90;84.00;;;;;;5010623;28;20194;-75
2022/05/15 01:51:43;;;;;;;2.20;1.92;;;15.90;84.00;;;;;;5020224;28;20550;-77
2022/05/15 01:54:10;;;;;;;2.33;2.00;;;15.90;83.90;;;;;;5014091;28;20601;-75
2022/05/15 01:56:36;;;;;;;2.13;1.50;;;15.80;84.20;;;;;;5016288;28;20259;-75
2022/05/15 01:59:07;;;;;;;2.08;1.98;;;15.80;83.90;;;;;;5009323;28;20184;-77
2022/05/15 02:01:33;;;;;;;2.20;2.10;;;15.80;83.70;;;;;;5012516;28;20185;-76
2022/05/15 02:03:59;;;;;;;1.98;1.88;;;15.80;83.80;;;;;;5042094;28;20280;-76
2022/05/15 02:06:25;;;;;;;1.63;1.60;;;;;;;;;;5014109;28;20268;-75
2022/05/15 02:08:51;;;;;;;2.33;2.22;;;15.80;83.60;;;;;;5016597;28;20203;-75
2022/05/15 02:11:17;;;;;;;2.25;2.05;;;15.80;83.60;;;;;;5013765;28;20180;-76
2022/05/15 02:13:42;;;;;;;1.67;1.67;;;15.80;83.50;;;;;;5014822;28;20648;-77
2022/05/15 02:16:08;;;;;;;2.35;1.55;;;15.70;83.50;;;;;;5014276;28;20653;-76
2022/05/15 02:18:34;;;;;;;1.70;1.60;;;15.80;83.30;;;;;;5013316;28;20223;-76
2022/05/15 02:21:00;;;;;;;1.70;1.60;;;;;;;;;;5021056;28;20196;-76
2022/05/15 02:23:29;;;;;;;8.20;1.77;;;15.70;83.50;;;;;;5015444;28;20852;-75
2022/05/15 02:25:55;;;;;;;1.55;1.45;;;15.70;83.10;;;;;;5012852;28;20190;-75
2022/05/15 02:28:21;;;;;;;1.45;1.35;;;15.70;83.00;;;;;;5012287;28;20189;-77
2022/05/15 02:30:50;;;;;;;1.48;1.48;;;15.70;82.90;;;;;;5018648;28;20724;-76
2022/05/15 02:33:16;;;;;;;1.13;1.13;;;15.70;83.50;;;;;;5009214;28;20216;-76
2022/05/15 02:35:42;;;;;;;1.80;1.60;;;15.70;82.90;;;;;;5014156;28;20833;-76
2022/05/15 02:38:08;;;;;;;1.02;1.02;;;15.60;82.80;;;;;;5018243;28;20275;-76
2022/05/15 02:40:34;;;;;;;1.60;1.60;;;15.70;82.80;;;;;;5016790;28;20184;-76
2022/05/15 02:42:59;;;;;;;1.60;1.50;;;15.60;82.70;;;;;;5014501;28;20271;-76
2022/05/15 02:45:25;;;;;;;1.80;1.70;;;15.60;82.70;;;;;;5015918;28;20185;-77
2022/05/15 02:47:52;;;;;;;5.70;1.63;;;15.60;82.70;;;;;;5016057;28;20185;-76
2022/05/15 02:53:05;;;;;;;8.63;1.55;;;15.60;82.60;;;;;;5018602;28;20191;-76
2022/05/15 02:55:31;;;;;;;1.55;1.40;;;;;;;;;;5017962;28;20274;-77
2022/05/15 02:57:57;;;;;;;1.15;1.15;;;15.60;82.70;;;;;;5014314;28;20187;-77
2022/05/15 03:00:25;;;;;;;1.98;1.88;;;15.60;82.70;;;;;;5017482;28;20267;-76
2022/05/15 03:02:51;;;;;;;2.97;1.48;;;15.60;82.50;;;;;;5015531;28;20197;-77
2022/05/15 03:05:18;;;;;;;1.30;1.30;;;15.50;82.70;;;;;;5017187;28;20188;-77
2022/05/15 03:07:45;;;;;;;1.35;1.33;;;15.50;82.60;;;;;;5014952;28;20177;-76
2022/05/15 03:10:15;;;;;;;1.55;1.42;;;15.50;82.70;;;;;;5011623;28;20181;-76
2022/05/15 03:12:40;;;;;;;1.25;1.25;;;15.50;82.60;;;;;;5013256;28;20192;-76
2022/05/15 03:15:07;;;;;;;2.85;1.38;;;15.50;82.60;;;;;;5019731;28;20270;-77
2022/05/15 03:17:34;;;;;;;1.50;1.40;;;15.50;82.60;;;;;;5019826;28;20214;-77
2022/05/15 03:20:01;;;;;;;1.50;1.40;;;15.40;83.20;;;;;;5045660;28;20192;-77
2022/05/15 03:22:26;;;;;;;2.10;1.17;;;15.50;82.80;;;;;;5020049;28;20683;-77
2022/05/15 03:24:52;;;;;;;2.50;1.70;;;15.40;82.70;;;;;;5019798;28;20180;-77
2022/05/15 03:27:18;;;;;;;1.20;1.20;;;15.40;82.80;;;;;;5016664;28;20284;-77
2022/05/15 03:29:44;;;;;;;2.38;1.52;;;15.40;83.40;;;;;;5011669;28;20193;-77
2022/05/15 03:32:10;;;;;;;1.05;1.05;;;;;;;;;;5016331;28;20200;-77
2022/05/15 03:34:35;;;;;;;1.65;1.55;;;15.30;83.20;;;;;;5009610;28;20339;-76
2022/05/15 03:37:01;;;;;;;1.90;1.90;;;;;;;;;;5011039;28;20288;-76
2022/05/15 03:39:27;;;;;;;1.25;1.25;;;15.30;83.10;;;;;;5010644;28;20181;-76
2022/05/15 03:41:53;;;;;;;1.30;1.30;;;15.30;83.00;;;;;;5017072;28;20311;-76
2022/05/15 03:44:19;;;;;;;1.58;1.58;;;15.30;83.50;;;;;;5013782;28;20754;-76
2022/05/15 03:46:45;;;;;;;1.63;1.35;;;15.30;83.10;;;;;;5017871;28;20181;-77
2022/05/15 03:49:13;;;;;;;4.25;1.48;;;15.30;83.10;;;;;;5014682;28;20204;-75
2022/05/15 03:51:39;;;;;;;1.90;1.17;;;15.30;83.10;;;;;;5041184;28;20199;-75
2022/05/15 03:54:05;;;;;;;1.20;1.20;;;15.30;83.80;;;;;;5013448;28;20191;-77
2022/05/15 03:56:49;;;;;;;1.50;1.45;;;15.40;83.20;;;;;;5015982;28;20338;-76
2022/05/15 03:59:18;;;;;;;7.80;1.70;;;15.40;83.10;;;;;;5013523;28;20183;-76
2022/05/15 04:01:44;;;;;;;1.67;1.45;;;15.40;83.10;;;;;;5018501;28;20188;-77
2022/05/15 04:04:10;;;;;;;4.05;2.13;;;;;;;;;;5018771;28;20261;-76
2022/05/15 04:06:35;;;;;;;2.05;1.98;;;15.40;84.00;;;;;;5016483;28;20189;-76
2022/05/15 04:09:02;;;;;;;2.10;1.98;;;15.40;84.50;;;;;;5015176;28;20193;-76
2022/05/15 04:11:28;;;;;;;3.03;2.42;;;15.40;83.90;;;;;;5013466;28;20191;-76
2022/05/15 04:13:54;;;;;;;2.05;1.77;;;15.40;84.70;;;;;;5010235;28;20199;-77
2022/05/15 04:16:20;;;;;;;2.90;2.58;;;;;;;;;;5016555;28;21026;-77
2022/05/15 04:18:46;;;;;;;3.70;2.80;;;15.40;84.30;;;;;;5007804;28;20209;-77
2022/05/15 04:21:11;;;;;;;2.33;2.22;;;15.40;84.30;;;;;;5014831;28;20783;-77
2022/05/15 04:23:38;;;;;;;3.20;2.65;;;15.40;84.50;;;;;;5012346;28;20185;-76
2022/05/15 04:26:04;;;;;;;2.38;2.17;;;15.50;85.10;;;;;;5015031;28;20192;-77
2022/05/15 04:28:30;;;;;;;2.45;2.05;;;15.50;84.60;;;;;;5012559;28;20232;-77
2022/05/15 04:30:55;;;;;;;2.97;2.60;;;15.60;84.70;;;;;;5011248;28;20204;-76
2022/05/15 04:33:21;;;;;;;2.10;2.00;;;15.60;84.70;;;;;;5006933;28;20185;-77
2022/05/15 04:35:47;;;;;;;2.50;2.33;;;15.60;85.20;;;;;;5016252;28;20223;-77
2022/05/15 04:38:13;;;;;;;2.55;2.30;;;15.70;85.40;;;;;;5013675;28;20191;-77
2022/05/15 04:40:38;;;;;;;2.10;2.00;;;15.70;85.40;;;;;;5011866;28;20192;-76
2022/05/15 04:43:04;;;;;;;2.67;2.53;;;15.70;84.90;;;;;;5013038;28;20188;-75
2022/05/15 04:45:30;;;;;;;3.47;2.58;;;15.70;84.70;;;;;;5011977;28;20188;-76
2022/05/15 04:47:56;;;;;;;3.42;2.28;;;15.80;85.60;;;;;;5013602;28;21901;-76
2022/05/15 04:50:22;;;;;;;3.28;2.95;;;15.80;85.70;;;;;;5014008;28;20651;-76
2022/05/15 04:52:48;;;;;;;3.28;3.00;;;15.90;85.40;;;;;;5011872;28;20181;-76
2022/05/15 04:55:15;;;;;;;2.70;2.60;;;15.90;85.50;;;;;;5008468;28;20223;-76
2022/05/15 04:57:41;;;;;;;3.53;3.22;;;15.90;85.40;;;;;;5011347;28;20265;-77
2022/05/15 05:00:13;;;;;;;3.38;3.17;;;16.00;85.50;;;;;;5008723;28;20192;-76
2022/05/15 05:02:38;;;;;;;2.83;2.65;;;16.00;85.40;;;;;;5015868;28;20275;-77
2022/05/15 05:05:05;;;;;;;2.63;2.53;;;16.10;85.70;;;;;;5010240;28;20268;-76
2022/05/15 05:07:31;;;;;;;3.55;3.13;;;16.10;85.50;;;;;;5006360;28;20181;-75
2022/05/15 05:09:57;;;;;;;2.67;2.58;;;16.10;85.40;;;;;;5013380;28;20187;-77
2022/05/15 05:12:23;;;;;;;4.95;2.85;;;16.20;85.40;;;;;;5013278;28;20172;-76
2022/05/15 05:14:49;;;;;;;2.63;2.42;;;16.30;85.40;;;;;;5012932;28;20218;-76
2022/05/15 05:17:15;;;;;;;2.47;2.38;;;16.30;85.00;;;;;;5006685;28;20180;-76
2022/05/15 05:19:41;;;;;;;2.58;2.47;;;16.40;84.60;;;;;;5012217;28;20216;-77
2022/05/15 05:22:07;;;;;;;2.50;2.22;;;16.50;84.30;;;;;;5017202;28;20181;-76
2022/05/15 05:24:33;;;;;;;2.78;2.25;;;16.50;84.30;;;;;;5013957;28;20188;-76
2022/05/15 05:27:00;;;;;;;1.90;1.83;;;16.60;84.90;;;;;;5008011;28;20181;-76
2022/05/15 05:29:25;;;;;;;2.08;2.08;;;16.70;84.20;;;;;;5013369;28;20250;-76
2022/05/15 05:31:51;;;;;;;6.55;2.65;;;16.70;84.10;;;;;;5016799;28;20181;-76
2022/05/15 05:34:17;;;;;;;4.00;2.28;;;16.80;83.90;;;;;;5008922;28;20177;-76
2022/05/15 05:36:43;;;;;;;2.40;2.30;;;17.00;83.60;;;;;;5015223;28;20259;-76
2022/05/15 05:39:09;;;;;;;2.58;2.42;;;17.10;83.40;;;;;;5009446;28;20271;-77
2022/05/15 05:41:35;;;;;;;5.22;2.22;;;17.10;83.40;;;;;;5013270;28;20185;-76
2022/05/15 05:44:01;;;;;;;1.88;1.77;;;;;;;;;;5013597;28;20581;-76
2022/05/15 05:46:28;;;;;;;5.35;2.45;;;17.30;83.30;;;;;;5009304;28;20940;-77
2022/05/15 05:48:54;;;;;;;4.05;2.67;;;17.50;83.60;;;;;;5009009;28;20290;-74
2022/05/15 05:51:27;;;;;;;2.97;1.75;;;17.50;82.80;;;;;;5015357;28;20188;-76
2022/05/15 05:53:56;;;;;;;3.90;2.42;;;17.50;82.70;;;;;;5032660;28;20283;-75
2022/05/15 05:56:22;;;;;;;2.40;2.08;;;17.70;83.00;;;;;;5015768;28;20213;-74
2022/05/15 05:58:48;;;;;;;4.97;2.15;;;17.80;82.70;;;;;;5008796;28;20264;-75
2022/05/15 06:01:13;;;;;;;2.42;2.22;;;17.80;82.20;;;;;;5012888;28;20286;-75
2022/05/15 06:06:24;;;;;;;4.20;2.47;;;17.90;82.10;;;;;;5015936;28;20228;-76
2022/05/15 06:08:49;;;;;;;2.70;2.50;;;18.00;81.70;;;;;;5023596;28;20650;-77
2022/05/15 06:11:15;;;;;;;2.90;2.80;;;;;;;;;;5012897;28;20184;-75
2022/05/15 06:13:41;;;;;;;2.40;2.00;;;18.20;81.40;;;;;;5009510;28;20838;-76
2022/05/15 06:16:08;;;;;;;2.63;2.42;;;18.40;81.00;;;;;;5010114;28;20203;-76
2022/05/15 06:18:34;;;;;;;2.40;2.20;;;18.50;80.70;;;;;;5026290;28;20250;-76
2022/05/15 06:21:00;;;;;;;4.38;2.50;;;18.60;80.60;;;;;;5017070;28;20617;-77
2022/05/15 06:23:26;;;;;;;2.28;2.17;;;;;;;;;;5010295;28;20258;-76
2022/05/15 06:25:52;;;;;;;3.25;2.55;;;18.90;79.40;;;;;;5012025;28;20188;-77
2022/05/15 06:28:19;;;;;;;5.20;3.10;;;18.90;79.40;;;;;;5008778;28;20181;-79
2022/05/15 06:30:45;;;;;;;1.98;1.98;;;19.00;79.30;;;;;;5013100;28;20173;-76
2022/05/15 06:33:11;;;;;;;1.52;1.52;;;19.00;77.70;;;;;;5007683;28;20216;-76
2022/05/15 06:35:37;;;;;;;1.67;1.67;;;19.00;76.00;;;;;;5012524;28;20223;-77
2022/05/15 06:38:04;;;;;;;1.98;1.88;;;19.10;75.90;;;;;;5012950;28;20794;-75
2022/05/15 06:40:31;;;;;;;1.92;1.92;;;19.10;76.00;;;;;;5017405;28;20188;-73
2022/05/15 06:42:57;;;;;;;1.90;1.80;;;19.20;76.20;;;;;;5010473;28;20188;-75
2022/05/15 06:45:25;;;;;;;1.45;1.42;;;19.20;74.40;;;;;;5006963;28;22355;-74
2022/05/15 06:47:51;;;;;;;2.53;1.67;;;19.20;74.10;;;;;;5006906;28;20190;-78
2022/05/15 06:50:17;;;;;;;1.50;1.50;;;19.20;74.30;;;;;;5012073;28;20580;-78
2022/05/15 06:52:43;;;;;;;2.63;1.58;;;19.20;74.50;;;;;;5011121;28;20603;-78
2022/05/15 06:55:14;;;;;;;2.45;1.92;;;19.40;75.10;;;;;;5008688;28;20219;-79
2022/05/15 06:57:41;;;;;;;1.58;1.58;;;19.40;74.70;;;;;;5010036;28;20193;-79
2022/05/15 07:00:13;;;;;;;3.83;1.73;;;19.40;74.60;;;;;;5013131;28;20176;-79
2022/05/15 07:02:41;;;;;;;1.65;1.65;;;19.40;74.20;;;;;;5016044;28;20278;-79
2022/05/15 07:05:09;;;;;;;1.52;1.52;;;19.40;74.20;;;;;;5018926;28;20331;-78
2022/05/15 07:07:36;;;;;;;2.45;1.48;;;19.50;74.20;;;;;;5049337;28;20189;-80
2022/05/15 07:10:02;;;;;;;2.15;1.73;;;19.60;73.90;;;;;;5016867;28;20301;-80
2022/05/15 07:12:27;;;;;;;2.42;1.40;;;19.70;74.40;;;;;;5016917;28;20219;-80
2022/05/15 07:14:53;;;;;;;1.50;1.40;;;19.70;74.30;;;;;;5020102;28;20227;-79
2022/05/15 07:17:19;;;;;;;1.83;1.83;;;19.80;74.60;;;;;;5015220;28;20242;-78
2022/05/15 07:19:45;;;;;;;1.50;1.42;;;;;;;;;;5013542;28;20619;-79
2022/05/15 07:22:11;;;;;;;1.75;1.65;;;20.00;74.10;;;;;;5010384;28;20195;-78
2022/05/15 07:24:40;;;;;;;1.85;1.75;;;20.10;73.20;;;;;;5009540;28;20634;-78
2022/05/15 07:27:07;;;;;;;2.05;1.88;;;20.20;73.20;;;;;;5014589;28;20204;-78
2022/05/15 07:29:36;;;;;;;3.70;1.50;;;20.20;73.20;;;;;;5010031;28;20247;-79
2022/05/15 07:32:03;;;;;;;3.42;1.58;;;20.30;73.00;;;;;;5012976;28;20180;-78
2022/05/15 07:34:29;;;;;;;1.83;1.08;;;20.30;72.20;;;;;;5015349;28;20220;-78
2022/05/15 07:36:55;;;;;;;1.15;1.00;;;;;;;;;;5016094;28;20215;-78
2022/05/15 07:39:22;;;;;;;1.35;1.25;;;20.50;68.70;;;;;;5018735;28;20467;-78
2022/05/15 07:41:49;;;;;;;1.58;1.55;;;20.50;68.70;;;;;;5013511;28;20203;-78
2022/05/15 07:44:16;;;;;;;3.40;1.20;;;20.60;70.40;;;;;;5012835;28;20246;-78
2022/05/15 07:46:42;;;;;;;1.60;1.50;;;20.60;69.70;;;;;;5011604;28;20657;-80
2022/05/15 07:49:09;;;;;;;1.00;0.90;;;20.60;69.60;;;;;;5011332;28;20660;-79
2022/05/15 07:51:35;;;;;;;2.35;0.85;;;20.70;67.60;;;;;;5014616;28;20199;-80
2022/05/15 07:54:01;;;;;;;3.03;1.13;;;20.80;67.70;;;;;;5015715;28;20189;-79
2022/05/15 07:56:28;;;;;;;1.35;1.27;;;20.80;66.20;;;;;;5011945;28;20294;-80
2022/05/15 07:58:54;;;;;;;1.30;1.20;;;20.90;67.50;;;;;;5015384;28;20181;-80
2022/05/15 08:01:20;;;;;;;2.05;1.20;;;;;;;;;;5016849;28;20553;-81
2022/05/15 08:03:46;;;;;;;2.92;1.20;;;;;;;;;;5007829;28;20668;-79
2022/05/15 08:09:00;;;;;;;2.88;1.23;;;21.40;67.60;;;;;;5010071;28;20262;-78
2022/05/15 08:11:28;;;;;;;1.05;1.02;;;21.40;67.30;;;;;;5009399;28;20644;-78
2022/05/15 08:13:55;;;;;;;1.30;1.30;;;21.30;65.70;;;;;;5004093;28;20189;-78
2022/05/15 08:16:22;;;;;;;1.45;1.45;;;21.30;66.60;;;;;;5010789;28;20220;-80
2022/05/15 08:24:16;;;;;;;0.90;0.90;;;21.40;65.30;;;;;;5010735;28;20214;-84
2022/05/15 08:26:44;;;;;;;0.95;0.93;;;21.50;65.00;;;;;;5010045;28;20284;-79
2022/05/15 08:29:10;;;;;;;1.13;1.00;;;21.40;64.00;;;;;;5001376;28;20715;-76
2022/05/15 08:31:36;;;;;;;1.95;0.98;;;21.50;63.80;;;;;;5040531;28;20191;-76
2022/05/15 08:34:02;;;;;;;1.20;1.20;;;21.50;62.70;;;;;;5012008;28;20857;-76
2022/05/15 08:36:28;;;;;;;1.45;1.30;;;21.40;63.30;;;;;;5013538;28;20216;-76
2022/05/15 08:38:54;;;;;;;1.38;1.27;;;;;;;;;;5013139;28;20184;-79
2022/05/15 08:41:31;;;;;;;1.00;0.85;;;21.60;64.30;;;;;;5012810;28;20189;-77
2022/05/15 08:44:09;;;;;;;1.13;1.13;;;21.60;64.30;;;;;;5009337;28;20950;-76
2022/05/15 08:46:57;;;;;;;1.85;0.80;;;21.70;62.30;;;;;;5015421;28;20267;-79
2022/05/15 08:49:39;;;;;;;2.05;1.00;;;21.80;62.10;;;;;;5017493;28;20180;-77
2022/05/15 08:52:13;;;;;;;1.30;0.88;;;21.90;63.20;;;;;;5012349;28;20220;-78
2022/05/15 08:54:48;;;;;;;0.80;0.80;;;21.90;62.70;;;;;;5014477;28;20311;-78
2022/05/15 08:57:36;;;;;;;2.28;1.25;;;21.90;62.50;;;;;;5010185;28;20185;-78
2022/05/15 09:00:10;;;;;;;2.58;0.90;;;22.00;62.90;;;;;;5017422;28;20185;-77
2022/05/15 09:02:40;;;;;;;1.10;1.00;;;21.90;62.20;;;;;;5013353;28;20190;-78
2022/05/15 09:05:07;;;;;;;0.93;0.93;;;22.00;62.00;;;;;;5042213;28;20187;-77
2022/05/15 09:07:52;;;;;;;1.90;0.98;;;22.10;62.50;;;;;;5015898;28;20210;-77
2022/05/15 09:10:26;;;;;;;3.45;0.90;;;22.30;60.90;;;;;;5011251;28;20189;-77
2022/05/15 09:13:00;;;;;;;1.10;1.10;;;22.30;61.50;;;;;;5012642;28;20191;-76
2022/05/15 09:15:30;;;;;;;2.00;1.02;;;22.40;61.60;;;;;;5013085;28;20608;-77
2022/05/15 09:18:01;;;;;;;0.70;0.70;;;22.60;60.90;;;;;;5039676;28;20557;-76
2022/05/15 09:20:45;;;;;;;3.15;1.15;;;22.70;61.00;;;;;;5029535;28;20203;-78
2022/05/15 09:23:29;;;;;;;0.80;0.80;;;23.00;60.70;;;;;;5014895;28;20280;-78
2022/05/15 09:26:26;;;;;;;1.60;1.02;;;23.00;60.90;;;;;;5017084;28;20184;-77
2022/05/15 09:28:58;;;;;;;0.80;0.80;;;23.10;57.20;;;;;;5009491;28;20590;-78
2022/05/15 09:31:36;;;;;;;0.65;0.65;;;23.10;57.00;;;;;;5015805;28;20623;-78
2022/05/15 09:34:20;;;;;;;0.88;0.88;;;23.20;57.70;;;;;;5013667;28;20184;-77
2022/05/15 09:36:49;;;;;;;2.45;1.27;;;23.30;58.40;;;;;;5017445;28;20263;-77
2022/05/15 09:39:40;;;;;;;2.38;0.80;;;23.40;58.40;;;;;;5039363;28;20239;-77
2022/05/15 09:45:17;;;;;;;0.63;0.63;;;23.80;57.60;;;;;;5009672;28;20227;-78
2022/05/15 09:47:46;;;;;;;0.85;0.77;;;23.90;57.10;;;;;;5015254;28;20208;-78
2022/05/15 09:50:37;;;;;;;1.40;1.30;;;24.10;55.90;;;;;;5044265;28;20210;-77
2022/05/15 09:53:13;;;;;;;0.85;0.85;;;24.30;56.00;;;;;;5014536;28;20242;-76
2022/05/15 09:55:40;;;;;;;1.95;0.90;;;24.50;56.70;;;;;;5007099;28;20223;-76
2022/05/15 09:58:17;;;;;;;0.73;0.73;;;24.80;55.70;;;;;;5043901;28;20672;-80
2022/05/15 10:00:43;;;;;;;1.42;0.70;;;;;;;;;;5025229;28;20238;-76
2022/05/15 10:03:26;;;;;;;2.38;0.60;;;25.30;52.60;;;;;;5010807;28;20200;-76
2022/05/15 10:06:06;;;;;;;0.55;0.55;;;25.60;53.10;;;;;;5010788;28;20318;-76
2022/05/15 10:08:32;;;;;;;0.80;0.80;;;26.30;54.20;;;;;;5008586;28;20185;-76
2022/05/15 10:11:02;;;;;;;1.05;1.05;;;26.80;53.20;;;;;;5006335;28;20200;-78
2022/05/15 10:13:37;;;;;;;0.82;0.70;;;27.40;52.20;;;;;;5015124;28;20180;-77
2022/05/15 10:16:18;;;;;;;0.60;0.60;;;27.40;52.30;;;;;;5009436;28;20218;-76
2022/05/15 10:19:02;;;;;;;1.05;1.00;;;27.90;50.00;;;;;;5009303;28;20231;-76
2022/05/15 10:21:51;;;;;;;1.45;0.90;;;28.40;50.20;;;;;;5010855;28;20176;-77
2022/05/15 10:24:34;;;;;;;2.20;0.93;;;28.90;50.70;;;;;;5010082;28;20181;-80
2022/05/15 10:27:07;;;;;;;2.00;0.75;;;28.90;50.90;;;;;;5017153;28;20258;-78
2022/05/15 10:30:01;;;;;;;1.75;1.10;;;29.10;50.90;;;;;;5010409;28;20264;-77
2022/05/15 10:32:33;;;;;;;0.60;0.60;;;29.80;48.10;;;;;;5008856;28;20976;-76
2022/05/15 10:34:59;;;;;;;0.70;0.70;;;29.80;48.50;;;;;;5015424;28;20304;-75
2022/05/15 10:37:47;;;;;;;3.28;0.90;;;30.20;48.10;;;;;;5014950;28;20195;-75
2022/05/15 10:40:22;;;;;;;1.00;0.85;;;30.60;48.20;;;;;;5011692;28;20687;-77
2022/05/15 10:43:13;;;;;;;0.73;0.73;;;31.10;47.20;;;;;;5017423;28;20785;-79
2022/05/15 10:46:00;;;;;;;0.85;0.85;;;31.90;45.50;;;;;;5013273;28;20225;-75
2022/05/15 10:48:54;;;;;;;3.40;0.90;;;32.00;46.00;;;;;;5022559;28;20259;-76
2022/05/15 10:51:35;;;;;;;2.17;1.00;;;32.50;47.40;;;;;;4985327;28;20398;-76
2022/05/15 10:57:25;;;;;;;0.85;0.70;;;33.10;44.90;;;;;;4984086;28;20614;-78
2022/05/15 11:00:08;;;;;;;1.02;0.65;;;33.30;45.20;;;;;;4966762;28;20937;-77
2022/05/15 11:03:16;;;;;;;0.80;0.80;;;33.40;46.00;;;;;;4982426;28;20272;-76
2022/05/15 11:05:45;;;;;;;0.73;0.73;;;33.30;43.80;;;;;;4926254;29;20302;-75
2022/05/15 11:08:39;;;;;;;1.27;0.73;;;33.20;44.30;;;;;;4925576;29;20253;-74
2022/05/15 11:11:21;;;;;;;2.70;0.82;;;33.30;45.20;;;;;;4926517;29;20246;-79
2022/05/15 11:13:56;;;;;;;1.40;1.00;;;33.40;45.10;;;;;;4927776;29;20804;-77
2022/05/15 11:16:56;;;;;;;1.27;0.88;;;33.50;45.10;;;;;;4927550;29;20229;-74
2022/05/15 11:19:38;;;;;;;0.70;0.70;;;33.80;45.40;;;;;;4928163;29;20210;-78
2022/05/15 11:22:22;;;;;;;1.75;1.52;;;34.40;43.40;;;;;;4927559;29;20751;-77
2022/05/15 11:25:05;;;;;;;0.93;0.90;;;34.50;45.00;;;;;;4927702;29;20229;-75
2022/05/15 11:27:58;;;;;;;0.80;0.75;;;34.20;45.60;;;;;;4932586;28;20183;-80
2022/05/15 11:30:41;;;;;;;0.90;0.90;;;34.20;46.20;;;;;;4955385;28;20197;-76
2022/05/15 11:33:25;;;;;;;3.92;0.80;;;33.90;44.80;;;;;;4952547;28;20289;-75
2022/05/15 11:36:09;;;;;;;1.20;0.88;;;33.60;44.40;;;;;;4953111;28;21015;-74
2022/05/15 11:38:58;;;;;;;1.95;1.20;;;33.30;45.80;;;;;;4950594;28;20298;-74
2022/05/15 11:41:36;;;;;;;2.25;0.95;;;33.30;47.50;;;;;;4953819;28;20214;-74
2022/05/15 11:44:30;;;;;;;2.63;0.95;;;33.70;45.00;;;;;;5010997;28;20192;-75
2022/05/15 11:46:59;;;;;;;0.93;0.93;;;33.70;47.50;;;;;;5010637;28;20690;-73
2022/05/15 11:50:00;;;;;;;0.90;0.80;;;33.70;47.70;;;;;;5010827;28;20263;-72
2022/05/15 11:52:37;;;;;;;0.93;0.80;;;33.70;45.80;;;;;;4935313;29;20210;-76
2022/05/15 11:55:33;;;;;;;3.88;1.05;;;33.70;47.10;;;;;;4931479;29;20240;-75
2022/05/15 11:58:30;;;;;;;1.10;0.90;;;33.60;46.50;;;;;;4937654;29;20233;-76
2022/05/15 12:01:13;;;;;;;1.40;1.30;;;33.30;45.70;;;;;;4887337;29;20200;-76
2022/05/15 12:03:38;;;;;;;1.23;1.23;;;33.40;48.10;;;;;;4882587;29;20319;-76
2022/05/15 12:06:08;;;;;;;1.15;1.02;;;33.40;46.30;;;;;;4888071;29;20361;-76
2022/05/15 12:08:37;;;;;;;1.00;1.00;;;33.40;46.00;;;;;;4888352;29;20180;-76
2022/05/15 12:11:17;;;;;;;1.02;1.02;;;33.00;47.00;;;;;;4870026;29;20229;-76
2022/05/15 12:13:42;;;;;;;0.88;0.88;;;33.10;46.30;;;;;;4878963;29;20376;-75
2022/05/15 12:16:21;;;;;;;1.00;0.90;;;33.30;46.40;;;;;;4881890;29;20660;-76
2022/05/15 12:19:22;;;;;;;3.28;1.20;;;33.40;46.00;;;;;;4883183;29;20853;-75
2022/05/15 12:21:52;;;;;;;1.27;0.88;;;33.40;46.40;;;;;;4883800;29;20199;-75
2022/05/15 12:24:27;;;;;;;0.93;0.90;;;33.40;47.70;;;;;;4882677;29;20252;-74
2022/05/15 12:27:20;;;;;;;1.00;1.00;;;33.70;47.30;;;;;;4882240;29;20348;-74
2022/05/15 12:29:48;;;;;;;1.00;1.00;;;34.00;45.40;;;;;;4946614;28;20209;-74
2022/05/15 12:32:28;;;;;;;1.20;1.20;;;34.10;44.90;;;;;;4980121;28;20181;-75
2022/05/15 12:34:54;;;;;;;0.82;0.82;;;34.10;44.90;;;;;;4962544;28;20379;-75
2022/05/15 12:37:29;;;;;;;1.00;1.00;;;34.10;44.90;;;;;;4994344;28;20188;-75
2022/05/15 12:39:58;;;;;;;0.90;0.90;;;34.10;45.80;;;;;;5044178;28;20195;-74
2022/05/15 12:42:41;;;;;;;1.20;1.00;;;33.90;46.50;;;;;;5009890;28;20175;-75
2022/05/15 12:45:19;;;;;;;1.02;1.02;;;34.00;47.50;;;;;;5025740;28;20211;-75
2022/05/15 12:48:07;;;;;;;1.50;1.40;;;34.50;45.50;;;;;;5038267;28;20184;-74
2022/05/15 12:50:47;;;;;;;1.55;1.00;;;34.80;45.30;;;;;;5015318;28;20196;-75
2022/05/15 12:53:24;;;;;;;0.90;0.90;;;35.10;44.90;;;;;;5045119;28;20187;-75
2022/05/15 12:55:51;;;;;;;0.93;0.93;;;35.10;44.60;;;;;;5029693;28;20219;-74
2022/05/15 12:58:30;;;;;;;0.98;0.98;;;35.00;45.00;;;;;;5013700;28;20693;-74
2022/05/15 13:00:56;;;;;;;1.33;1.10;;;34.90;44.00;;;;;;5022195;28;20202;-75
2022/05/15 13:03:23;;;;;;;1.08;1.08;;;34.80;44.60;;;;;;5014636;28;20195;-75
2022/05/15 13:05:48;;;;;;;3.60;1.08;;;34.80;44.40;;;;;;5010328;28;20662;-76
2022/05/15 13:08:14;;;;;;;1.00;1.00;;;34.90;44.60;;;;;;5011431;28;20368;-76
2022/05/15 13:11:03;;;;;;;1.23;1.23;;;35.20;44.90;;;;;;5008883;28;20188;-75
2022/05/15 13:13:35;;;;;;;1.88;0.93;;;35.30;43.90;;;;;;5011190;28;20218;-76
2022/05/15 13:16:03;;;;;;;1.05;1.05;;;35.20;44.10;;;;;;5009562;28;21390;-75
2022/05/15 13:18:32;;;;;;;0.98;0.98;;;35.10;44.20;;;;;;5001607;28;20192;-77
2022/05/15 13:21:07;;;;;;;0.73;0.73;;;35.00;43.00;;;;;;5006061;28;20188;-77
2022/05/15 13:23:37;;;;;;;1.73;0.98;;;35.10;43.30;;;;;;5013603;28;20241;-77
2022/05/15 13:26:05;;;;;;;1.55;1.50;;;34.60;45.80;;;;;;5015419;28;20191;-75
2022/05/15 13:28:31;;;;;;;2.15;1.00;;;34.00;46.10;;;;;;5008478;28;20185;-74
2022/05/15 13:30:59;;;;;;;1.10;1.10;;;33.60;46.40;;;;;;5009229;28;20175;-74